Time;durP1;ratioP1;P1;durP2;ratioP2;P2;SDS_P1;SDS_P2;PMS_P1;PMS_P2;Temp;Humidity;BMP_temperature;BMP_pressure;BME280_temperature;BME280_humidity;BME280_pressure;Samples;Min_cycle;Max_cycle;Signal;HPM_P1;HPM_P2
2021/11/03 00:02:18;;;;;;;7.63;5.15;;;6.00;94.00;;;;;;5054101;28;20480;-82
2021/11/03 00:04:43;;;;;;;6.25;5.25;;;5.90;94.00;;;;;;5071469;28;20024;-82
2021/11/03 00:07:11;;;;;;;9.93;6.28;;;5.90;94.00;;;;;;5055232;28;20025;-82
2021/11/03 00:09:37;;;;;;;8.90;6.30;;;5.90;94.00;;;;;;5066742;28;20025;-82
2021/11/03 00:12:05;;;;;;;8.63;6.00;;;5.90;93.90;;;;;;5070319;28;20017;-82
2021/11/03 00:14:30;;;;;;;8.70;6.05;;;5.90;93.90;;;;;;5043066;28;20014;-82
2021/11/03 00:16:56;;;;;;;8.50;5.68;;;5.80;93.90;;;;;;5061400;28;20042;-82
2021/11/03 00:19:21;;;;;;;7.95;6.07;;;5.80;93.90;;;;;;5055007;28;20127;-82
2021/11/03 00:21:47;;;;;;;9.10;5.90;;;5.80;93.90;;;;;;5064881;28;20059;-82
2021/11/03 00:24:13;;;;;;;9.40;5.75;;;5.80;93.90;;;;;;5047315;28;20078;-82
2021/11/03 00:26:38;;;;;;;11.13;6.20;;;5.80;93.90;;;;;;5027149;28;20052;-82
2021/11/03 00:29:04;;;;;;;10.43;6.40;;;5.80;93.90;;;;;;5050455;28;20053;-82
2021/11/03 00:31:30;;;;;;;10.68;5.82;;;5.80;93.90;;;;;;5061694;28;20545;-81
2021/11/03 00:33:55;;;;;;;9.85;6.20;;;5.80;93.90;;;;;;5052315;28;20170;-82
2021/11/03 00:36:21;;;;;;;8.45;5.90;;;5.70;93.90;;;;;;5040290;28;20354;-82
2021/11/03 00:38:47;;;;;;;8.82;6.03;;;5.70;93.90;;;;;;5072579;28;20098;-82
2021/11/03 00:41:12;;;;;;;6.50;5.40;;;5.70;93.90;;;;;;5072579;28;20046;-82
2021/11/03 00:43:38;;;;;;;7.97;5.97;;;5.70;93.90;;;;;;5068431;28;20449;-82
2021/11/03 00:46:04;;;;;;;8.10;6.07;;;5.70;93.90;;;;;;5052177;28;20064;-82
2021/11/03 00:48:30;;;;;;;11.52;6.47;;;5.70;93.90;;;;;;5036131;28;20449;-82
2021/11/03 00:50:56;;;;;;;6.65;5.22;;;5.70;93.90;;;;;;5045811;28;20026;-82
2021/11/03 00:53:22;;;;;;;12.57;6.50;;;5.70;94.20;;;;;;5037948;28;20017;-82
2021/11/03 00:55:47;;;;;;;9.68;6.35;;;5.70;93.90;;;;;;5072327;28;20063;-82
2021/11/03 00:58:13;;;;;;;11.38;6.22;;;5.70;93.80;;;;;;5057999;28;20036;-82
2021/11/03 01:00:39;;;;;;;8.45;6.63;;;5.60;93.80;;;;;;5049039;28;20032;-82
2021/11/03 01:03:05;;;;;;;8.77;5.93;;;5.60;93.70;;;;;;5058503;28;20577;-82
2021/11/03 01:05:37;;;;;;;6.88;5.05;;;5.60;93.70;;;;;;5031877;28;20034;-82
2021/11/03 01:08:06;;;;;;;10.77;6.50;;;5.50;93.80;;;;;;5061113;28;20553;-82
2021/11/03 01:10:32;;;;;;;;;;;5.50;93.80;;;;;;5065643;28;20098;-82
2021/11/03 01:12:58;;;;;;;8.48;5.95;;;5.50;93.80;;;;;;5072764;28;19908;-82
2021/11/03 01:15:25;;;;;;;10.00;6.63;;;5.50;93.90;;;;;;5072797;28;20020;-82
2021/11/03 01:17:54;;;;;;;9.82;6.78;;;5.40;93.80;;;;;;5073201;28;20027;-82
2021/11/03 01:20:20;;;;;;;7.18;6.15;;;5.40;93.80;;;;;;5070410;28;20017;-81
2021/11/03 01:22:46;;;;;;;12.68;6.45;;;5.40;93.80;;;;;;5042256;28;20111;-82
2021/11/03 01:25:12;;;;;;;11.65;6.03;;;5.40;93.80;;;;;;5052679;28;20047;-82
2021/11/03 01:27:38;;;;;;;12.63;7.70;;;5.40;94.10;;;;;;5051064;28;20053;-82
2021/11/03 01:30:05;;;;;;;11.43;7.80;;;5.40;93.80;;;;;;5051338;28;20355;-82
2021/11/03 01:32:31;;;;;;;11.88;6.97;;;5.30;93.80;;;;;;5051779;28;20025;-82
2021/11/03 01:34:56;;;;;;;13.68;7.50;;;5.30;93.80;;;;;;5035230;28;20091;-82
2021/11/03 01:37:22;;;;;;;14.00;7.03;;;5.30;93.80;;;;;;5040009;28;20052;-82
2021/11/03 01:39:48;;;;;;;9.88;7.38;;;5.30;93.80;;;;;;5031691;28;20068;-81
2021/11/03 01:42:13;;;;;;;9.57;6.55;;;5.30;93.80;;;;;;5046679;28;20037;-82
2021/11/03 01:44:39;;;;;;;9.75;6.65;;;5.30;93.80;;;;;;5051732;28;20564;-82
2021/11/03 01:47:42;;;;;;;8.20;5.68;;;5.30;93.90;;;;;;5052618;28;20029;-81
2021/11/03 01:50:23;;;;;;;11.57;7.03;;;5.30;94.00;;;;;;5032742;28;20398;-82
2021/11/03 01:52:54;;;;;;;11.65;7.22;;;5.30;93.90;;;;;;5046964;28;20405;-82
2021/11/03 01:55:20;;;;;;;10.65;7.18;;;5.30;93.90;;;;;;5057819;28;20021;-82
2021/11/03 01:57:55;;;;;;;9.60;5.78;;;5.30;93.90;;;;;;5051511;28;20460;-82
2021/11/03 02:00:25;;;;;;;11.82;5.97;;;5.30;93.90;;;;;;5062362;28;20052;-82
2021/11/03 02:02:55;;;;;;;10.27;6.20;;;5.30;93.90;;;;;;5052784;28;20033;-82
2021/11/03 02:05:21;;;;;;;9.82;6.70;;;5.30;94.00;;;;;;5047494;28;20489;-81
2021/11/03 02:07:49;;;;;;;11.15;7.40;;;5.40;94.00;;;;;;5050016;28;20056;-81
2021/11/03 02:10:15;;;;;;;15.52;7.72;;;5.40;94.00;;;;;;5067401;28;20090;-82
2021/11/03 02:12:41;;;;;;;9.30;6.38;;;5.40;93.90;;;;;;5050370;28;20025;-82
2021/11/03 02:15:07;;;;;;;8.35;7.03;;;5.40;93.90;;;;;;5041799;28;20013;-82
2021/11/03 02:17:34;;;;;;;8.00;6.55;;;5.30;93.90;;;;;;5048376;28;20358;-82
2021/11/03 02:20:03;;;;;;;9.73;6.80;;;5.30;93.90;;;;;;5035966;28;20108;-81
2021/11/03 02:22:53;;;;;;;12.00;7.50;;;5.40;94.00;;;;;;5041566;28;20046;-82
2021/11/03 02:25:26;;;;;;;11.02;7.55;;;5.40;94.00;;;;;;5047548;28;20040;-82
2021/11/03 02:27:55;;;;;;;13.10;6.85;;;5.30;93.90;;;;;;5043248;28;20059;-82
2021/11/03 02:30:23;;;;;;;8.05;6.10;;;5.30;93.90;;;;;;5032866;28;20460;-82
2021/11/03 02:32:55;;;;;;;9.70;6.47;;;5.30;93.90;;;;;;5041396;28;20036;-82
2021/11/03 02:35:21;;;;;;;10.00;6.53;;;5.30;93.90;;;;;;5053828;28;20013;-82
2021/11/03 02:37:52;;;;;;;9.23;6.65;;;5.30;93.90;;;;;;5051478;28;20039;-82
2021/11/03 02:40:21;;;;;;;10.85;7.35;;;5.30;93.80;;;;;;5061397;28;20519;-82
2021/11/03 02:42:51;;;;;;;9.95;6.38;;;5.20;93.80;;;;;;5066338;28;20083;-82
2021/11/03 02:45:26;;;;;;;9.20;6.35;;;5.20;93.80;;;;;;5055205;28;20378;-82
2021/11/03 02:47:52;;;;;;;9.32;6.82;;;5.20;93.90;;;;;;5071544;28;20021;-82
2021/11/03 02:50:18;;;;;;;8.77;6.88;;;5.20;93.90;;;;;;5070461;28;20025;-82
2021/11/03 02:52:44;;;;;;;10.02;7.75;;;5.20;93.90;;;;;;5053840;28;20377;-82
2021/11/03 02:55:11;;;;;;;11.85;6.78;;;5.20;93.90;;;;;;5061971;28;20036;-82
2021/11/03 02:57:37;;;;;;;9.07;6.93;;;5.20;93.90;;;;;;5052406;28;20037;-82
2021/11/03 03:00:06;;;;;;;8.43;6.72;;;5.20;93.90;;;;;;5035317;28;20052;-82
2021/11/03 03:02:31;;;;;;;12.38;7.63;;;5.20;93.90;;;;;;5036742;28;20041;-82
2021/11/03 03:04:57;;;;;;;13.85;6.60;;;5.20;94.20;;;;;;5054764;28;20695;-82
2021/11/03 03:07:23;;;;;;;10.05;6.10;;;5.20;93.90;;;;;;5054334;28;20033;-82
2021/11/03 03:09:49;;;;;;;9.10;5.75;;;5.20;94.00;;;;;;5053887;28;20026;-82
2021/11/03 03:12:18;;;;;;;9.88;7.30;;;5.20;94.00;;;;;;5055073;28;20032;-82
2021/11/03 03:14:46;;;;;;;9.48;5.97;;;5.20;94.00;;;;;;5055434;28;20024;-82
2021/11/03 03:17:14;;;;;;;9.85;6.18;;;5.20;94.00;;;;;;5075244;28;20043;-82
2021/11/03 03:19:41;;;;;;;12.20;7.30;;;5.20;94.00;;;;;;5075233;28;20060;-81
2021/11/03 03:22:08;;;;;;;11.48;7.28;;;5.20;93.90;;;;;;5075169;28;20103;-82
2021/11/03 03:24:35;;;;;;;10.68;6.28;;;5.20;93.90;;;;;;5058952;28;20025;-82
2021/11/03 03:27:01;;;;;;;10.38;7.65;;;5.20;94.00;;;;;;5033736;28;20060;-82
2021/11/03 03:29:27;;;;;;;10.00;6.88;;;5.20;94.10;;;;;;5044329;28;20498;-82
2021/11/03 03:31:52;;;;;;;9.05;6.75;;;5.20;94.20;;;;;;5036527;28;20025;-82
2021/11/03 03:34:21;;;;;;;9.30;6.90;;;5.20;94.10;;;;;;5053437;28;20031;-82
2021/11/03 03:36:48;;;;;;;9.10;6.30;;;5.20;94.10;;;;;;5053275;28;20029;-82
2021/11/03 03:39:18;;;;;;;9.43;7.35;;;5.20;94.10;;;;;;5043105;28;20025;-82
2021/11/03 03:41:46;;;;;;;8.65;6.63;;;5.20;94.00;;;;;;5038432;28;20029;-81
2021/11/03 03:44:12;;;;;;;8.15;7.05;;;5.20;94.10;;;;;;5054214;28;20027;-81
2021/11/03 03:46:38;;;;;;;12.27;8.05;;;5.10;94.10;;;;;;5033511;28;20549;-82
2021/11/03 03:49:04;;;;;;;12.38;8.75;;;5.10;94.00;;;;;;5063035;28;20086;-81
2021/11/03 03:51:30;;;;;;;12.52;7.82;;;5.10;94.10;;;;;;5051490;28;20048;-81
2021/11/03 03:53:56;;;;;;;16.13;8.55;;;5.00;94.10;;;;;;5073154;28;20022;-82
2021/11/03 03:56:22;;;;;;;12.63;7.72;;;5.10;94.20;;;;;;5036817;28;20032;-81
2021/11/03 03:58:49;;;;;;;10.73;7.38;;;5.10;94.20;;;;;;5052909;28;20389;-81
2021/11/03 04:01:17;;;;;;;9.88;6.70;;;5.00;94.20;;;;;;5053435;28;20524;-82
2021/11/03 04:03:44;;;;;;;14.77;7.15;;;5.10;94.30;;;;;;5050045;28;20400;-82
2021/11/03 04:06:11;;;;;;;9.00;6.78;;;5.10;94.20;;;;;;5044580;28;20061;-81
2021/11/03 04:08:37;;;;;;;12.10;7.43;;;5.10;94.20;;;;;;5032151;28;20525;-82
2021/11/03 04:11:03;;;;;;;10.82;7.18;;;5.10;94.20;;;;;;5044570;28;20112;-82
2021/11/03 04:13:29;;;;;;;9.55;7.05;;;5.10;94.20;;;;;;5055307;28;20028;-81
2021/11/03 04:15:56;;;;;;;13.07;6.97;;;5.10;94.20;;;;;;5071401;28;20381;-82
2021/11/03 04:18:22;;;;;;;10.20;7.93;;;5.10;94.50;;;;;;5047899;28;20036;-82
2021/11/03 04:20:48;;;;;;;13.82;8.25;;;5.20;94.20;;;;;;5031268;28;20714;-82
2021/11/03 04:23:15;;;;;;;12.20;7.18;;;5.20;94.20;;;;;;5045564;28;20493;-82
2021/11/03 04:25:41;;;;;;;14.23;8.55;;;5.20;94.20;;;;;;5043774;28;20387;-82
2021/11/03 04:28:06;;;;;;;10.98;7.90;;;5.20;94.30;;;;;;5041288;28;20079;-82
2021/11/03 04:30:33;;;;;;;13.70;8.57;;;5.20;94.30;;;;;;5046229;28;20064;-82
2021/11/03 04:32:59;;;;;;;11.45;7.88;;;5.20;94.30;;;;;;5047796;28;20043;-82
2021/11/03 04:35:26;;;;;;;16.20;8.75;;;5.20;94.30;;;;;;5046407;28;20099;-82
2021/11/03 04:37:52;;;;;;;13.75;8.13;;;5.20;94.40;;;;;;5063318;28;20025;-82
2021/11/03 04:40:20;;;;;;;14.63;9.65;;;5.30;94.40;;;;;;5037970;28;20064;-82
2021/11/03 04:42:45;;;;;;;13.60;9.02;;;5.30;94.40;;;;;;5052618;28;20481;-82
2021/11/03 04:45:12;;;;;;;17.75;9.63;;;5.30;94.40;;;;;;5035890;28;20123;-82
2021/11/03 04:47:38;;;;;;;14.57;8.43;;;5.30;94.50;;;;;;5046163;28;20112;-82
2021/11/03 04:50:08;;;;;;;17.50;10.07;;;5.40;94.50;;;;;;5044682;28;20075;-82
2021/11/03 04:52:34;;;;;;;14.45;9.55;;;5.40;94.50;;;;;;5053177;28;20028;-82
2021/11/03 04:54:59;;;;;;;15.82;9.73;;;5.40;94.50;;;;;;5053619;28;20032;-82
2021/11/03 04:57:25;;;;;;;18.15;9.38;;;5.40;94.50;;;;;;5035347;28;20033;-82
2021/11/03 04:59:51;;;;;;;13.60;8.27;;;5.50;94.50;;;;;;5032094;28;20037;-82
2021/11/03 05:02:17;;;;;;;12.30;8.52;;;5.50;94.50;;;;;;5038280;28;20303;-82
2021/11/03 05:04:43;;;;;;;11.57;8.65;;;5.50;94.50;;;;;;5052164;28;20378;-82
2021/11/03 05:07:10;;;;;;;16.52;8.65;;;5.50;94.50;;;;;;5035962;28;20796;-82
2021/11/03 05:09:35;;;;;;;24.45;11.07;;;5.50;94.50;;;;;;5052246;28;20036;-82
2021/11/03 05:12:01;;;;;;;16.27;9.35;;;5.50;94.50;;;;;;5066355;28;20025;-82
2021/11/03 05:14:27;;;;;;;14.18;8.93;;;5.50;94.50;;;;;;5072360;28;20393;-82
2021/11/03 05:16:53;;;;;;;17.65;8.93;;;5.50;94.50;;;;;;5045965;28;20026;-82
2021/11/03 05:19:28;;;;;;;12.95;8.60;;;5.40;94.50;;;;;;5038144;28;20025;-82
2021/11/03 05:21:55;;;;;;;11.18;7.78;;;5.40;94.50;;;;;;5033090;28;20482;-82
2021/11/03 05:24:20;;;;;;;16.42;9.43;;;5.40;94.60;;;;;;5045608;28;20496;-82
2021/11/03 05:26:46;;;;;;;13.05;8.80;;;5.40;94.60;;;;;;5053097;28;20108;-82
2021/11/03 05:29:13;;;;;;;14.65;9.40;;;5.40;94.60;;;;;;5051388;28;20118;-82
2021/11/03 05:31:39;;;;;;;14.48;9.02;;;5.40;94.60;;;;;;5049384;28;20025;-82
2021/11/03 05:34:04;;;;;;;16.65;9.93;;;5.40;94.60;;;;;;5053048;28;20028;-82
2021/11/03 05:36:31;;;;;;;16.08;9.38;;;5.50;94.60;;;;;;5053397;28;20497;-82
2021/11/03 05:39:04;;;;;;;15.63;9.30;;;5.40;94.60;;;;;;5046879;28;20128;-82
2021/11/03 05:41:30;;;;;;;15.82;7.75;;;5.40;94.60;;;;;;5051254;28;20103;-82
2021/11/03 05:43:56;;;;;;;13.90;8.18;;;5.40;94.60;;;;;;5049401;28;20460;-82
2021/11/03 05:46:32;;;;;;;16.80;8.82;;;5.40;94.70;;;;;;5046969;28;20047;-82
2021/11/03 05:48:59;;;;;;;14.85;9.73;;;5.40;94.70;;;;;;5057304;28;20035;-82
2021/11/03 05:51:25;;;;;;;14.65;8.77;;;5.40;94.60;;;;;;5038770;28;20063;-82
2021/11/03 05:53:51;;;;;;;15.82;9.15;;;5.40;94.70;;;;;;5059614;28;20049;-82
2021/11/03 05:56:17;;;;;;;14.00;9.07;;;5.40;94.70;;;;;;5058702;28;20019;-82
2021/11/03 05:58:44;;;;;;;18.63;8.77;;;5.40;94.70;;;;;;5072981;28;20040;-82
2021/11/03 06:01:09;;;;;;;11.68;7.82;;;5.40;94.70;;;;;;5075075;28;20067;-82
2021/11/03 06:03:36;;;;;;;16.13;7.93;;;5.40;94.70;;;;;;5075612;28;20048;-82
2021/11/03 06:06:03;;;;;;;12.20;7.78;;;5.40;94.70;;;;;;5075252;28;20033;-82
2021/11/03 06:08:29;;;;;;;19.73;8.73;;;5.40;94.70;;;;;;5066080;28;20402;-82
2021/11/03 06:10:56;;;;;;;16.58;8.02;;;5.30;94.70;;;;;;5054059;28;20029;-82
2021/11/03 06:13:22;;;;;;;16.05;8.63;;;5.30;94.80;;;;;;5040801;28;20033;-82
2021/11/03 06:15:47;;;;;;;13.50;7.63;;;5.40;94.80;;;;;;5018647;28;20045;-82
2021/11/03 06:18:14;;;;;;;12.82;8.13;;;5.40;94.80;;;;;;5049478;28;20037;-82
2021/11/03 06:20:40;;;;;;;14.52;8.07;;;5.30;94.70;;;;;;5061282;28;20033;-82
2021/11/03 06:23:06;;;;;;;28.60;10.45;;;5.30;94.70;;;;;;5056407;28;20120;-81
2021/11/03 06:25:34;;;;;;;14.57;8.32;;;5.30;94.70;;;;;;5055110;28;20052;-81
2021/11/03 06:28:00;;;;;;;14.75;8.40;;;5.30;94.80;;;;;;5055865;28;20037;-81
2021/11/03 06:30:33;;;;;;;18.00;8.75;;;5.30;94.80;;;;;;5038361;28;20021;-81
2021/11/03 06:32:59;;;;;;;14.48;8.93;;;5.30;94.80;;;;;;5036230;28;20112;-81
2021/11/03 06:35:26;;;;;;;11.52;7.97;;;5.20;94.80;;;;;;5035274;28;20110;-81
2021/11/03 06:37:52;;;;;;;16.45;9.13;;;5.20;94.80;;;;;;5045258;28;20120;-81
2021/11/03 06:40:20;;;;;;;15.52;10.77;;;5.20;94.90;;;;;;5032872;28;20124;-81
2021/11/03 06:42:45;;;;;;;13.52;8.52;;;5.30;94.90;;;;;;5046237;28;20061;-81
2021/11/03 06:45:13;;;;;;;18.77;10.32;;;5.30;94.90;;;;;;5048738;28;20084;-82
2021/11/03 06:47:38;;;;;;;11.48;7.70;;;5.30;94.90;;;;;;5038730;28;20045;-81
2021/11/03 06:50:06;;;;;;;18.10;9.77;;;5.30;95.00;;;;;;5025038;28;20444;-81
2021/11/03 06:52:32;;;;;;;10.40;7.00;;;5.40;95.40;;;;;;5042257;28;20030;-81
2021/11/03 06:54:58;;;;;;;17.27;10.50;;;5.40;95.10;;;;;;5054211;28;20072;-81
2021/11/03 06:57:24;;;;;;;9.45;6.65;;;5.50;95.10;;;;;;5056459;28;20057;-81
2021/11/03 06:59:50;;;;;;;16.60;9.52;;;5.60;95.00;;;;;;5055691;28;20075;-81
2021/11/03 07:02:17;;;;;;;11.75;8.27;;;5.70;95.00;;;;;;5038327;28;20367;-81
2021/11/03 07:04:43;;;;;;;11.88;7.28;;;5.70;94.90;;;;;;5054418;28;20447;-81
2021/11/03 07:07:09;;;;;;;13.75;8.00;;;5.70;94.90;;;;;;5037753;28;20037;-81
2021/11/03 07:09:36;;;;;;;19.17;9.55;;;5.80;94.90;;;;;;5054260;28;20024;-80
2021/11/03 07:12:02;;;;;;;13.80;8.05;;;5.80;94.80;;;;;;5036925;28;20032;-80
2021/11/03 07:14:28;;;;;;;11.27;7.78;;;5.80;94.70;;;;;;5054530;28;20386;-80
2021/11/03 07:16:54;;;;;;;12.18;7.05;;;5.90;94.70;;;;;;5055471;28;20024;-79
2021/11/03 07:19:20;;;;;;;15.20;8.35;;;5.90;94.70;;;;;;5037705;28;20029;-80
2021/11/03 07:21:45;;;;;;;10.55;6.93;;;5.90;94.60;;;;;;5052967;28;20545;-80
2021/11/03 07:24:13;;;;;;;13.30;8.27;;;5.90;94.70;;;;;;5037601;28;20167;-80
2021/11/03 07:26:42;;;;;;;15.90;8.70;;;6.00;94.70;;;;;;5055108;28;20024;-80
2021/11/03 07:29:08;;;;;;;13.45;6.93;;;6.00;94.90;;;;;;5053798;28;20052;-81
2021/11/03 07:31:34;;;;;;;13.13;8.85;;;6.00;94.50;;;;;;5053967;28;20389;-80
2021/11/03 07:34:00;;;;;;;15.25;6.82;;;6.00;94.50;;;;;;5054019;28;20029;-81
2021/11/03 07:36:26;;;;;;;13.90;8.93;;;6.00;94.50;;;;;;5037180;28;20079;-81
2021/11/03 07:38:52;;;;;;;10.82;7.18;;;6.00;94.50;;;;;;5033901;28;20497;-81
2021/11/03 07:41:17;;;;;;;14.13;8.02;;;6.00;94.60;;;;;;5036745;28;20559;-81
2021/11/03 07:43:44;;;;;;;13.65;7.75;;;6.10;94.60;;;;;;5054665;28;20061;-81
2021/11/03 07:46:11;;;;;;;11.98;7.95;;;6.10;94.60;;;;;;5053714;28;20124;-81
2021/11/03 07:48:38;;;;;;;18.55;9.05;;;6.10;94.50;;;;;;5054648;28;20035;-81
2021/11/03 07:51:07;;;;;;;24.73;11.27;;;6.10;94.50;;;;;;5054878;28;20032;-81
2021/11/03 07:53:34;;;;;;;16.48;11.45;;;6.10;94.60;;;;;;5054604;28;20035;-81
2021/11/03 07:56:05;;;;;;;19.30;13.35;;;6.20;94.50;;;;;;5053726;28;20798;-81
2021/11/03 07:58:35;;;;;;;16.63;11.13;;;6.10;94.60;;;;;;5053477;28;20032;-81
2021/11/03 08:01:02;;;;;;;16.00;10.77;;;6.20;94.60;;;;;;5052923;28;20056;-81
2021/11/03 08:03:28;;;;;;;13.00;9.30;;;6.20;94.70;;;;;;5053400;28;20490;-81
2021/11/03 08:05:54;;;;;;;48.70;25.30;;;6.20;94.70;;;;;;5046390;28;20037;-81
2021/11/03 08:08:23;;;;;;;21.13;13.15;;;6.20;94.90;;;;;;5049696;28;20484;-81
2021/11/03 08:10:50;;;;;;;23.20;11.60;;;6.30;94.70;;;;;;5042586;28;20025;-81
2021/11/03 08:13:17;;;;;;;16.63;10.63;;;6.30;94.70;;;;;;5042731;28;20760;-81
2021/11/03 08:15:45;;;;;;;16.27;9.80;;;6.30;94.70;;;;;;5051307;28;20025;-81
2021/11/03 08:18:12;;;;;;;14.13;9.88;;;6.40;94.70;;;;;;5050697;28;20032;-81
2021/11/03 08:20:39;;;;;;;17.98;10.98;;;6.50;94.80;;;;;;5045000;28;20044;-81
2021/11/03 08:23:06;;;;;;;16.10;10.65;;;6.50;94.70;;;;;;5052624;28;20033;-81
2021/11/03 08:25:32;;;;;;;16.08;10.13;;;6.50;94.70;;;;;;5052341;28;20512;-81
2021/11/03 08:27:57;;;;;;;20.95;10.25;;;6.50;94.60;;;;;;5053150;28;20140;-81
2021/11/03 08:30:23;;;;;;;23.33;10.52;;;6.60;94.60;;;;;;5052325;28;20063;-81
2021/11/03 08:33:04;;;;;;;17.38;10.20;;;6.60;94.60;;;;;;5034106;28;20083;-81
2021/11/03 08:35:31;;;;;;;20.55;10.15;;;6.50;94.70;;;;;;5032167;28;20704;-81
2021/11/03 08:38:03;;;;;;;23.58;11.15;;;6.50;94.70;;;;;;5043356;28;20075;-81
2021/11/03 08:40:33;;;;;;;16.45;10.07;;;6.60;94.80;;;;;;5050974;28;20017;-81
2021/11/03 08:43:00;;;;;;;15.60;10.15;;;6.60;94.80;;;;;;5050509;28;20477;-80
2021/11/03 08:45:26;;;;;;;12.90;8.95;;;6.60;94.90;;;;;;5053318;28;20378;-80
2021/11/03 08:47:52;;;;;;;19.60;10.27;;;6.70;95.00;;;;;;5051695;28;20032;-81
2021/11/03 08:50:22;;;;;;;21.33;11.80;;;6.70;95.10;;;;;;5052217;28;20026;-81
2021/11/03 08:52:47;;;;;;;18.35;12.43;;;6.80;95.10;;;;;;5051859;28;20036;-81
2021/11/03 08:55:14;;;;;;;19.70;11.38;;;6.70;95.10;;;;;;5052309;28;20382;-81
2021/11/03 08:57:40;;;;;;;20.25;12.43;;;6.80;95.00;;;;;;5053405;28;20036;-81
2021/11/03 09:00:14;;;;;;;20.00;11.73;;;6.80;95.10;;;;;;5053694;28;20017;-81
2021/11/03 09:02:39;;;;;;;23.40;11.95;;;6.90;95.00;;;;;;5051934;28;20036;-81
2021/11/03 09:05:05;;;;;;;16.55;12.00;;;6.80;95.00;;;;;;5052214;28;20386;-81
2021/11/03 09:07:32;;;;;;;22.55;12.90;;;6.80;95.10;;;;;;5031950;28;20103;-81
2021/11/03 09:10:00;;;;;;;18.48;11.32;;;6.90;95.20;;;;;;5051490;28;20021;-81
2021/11/03 09:12:26;;;;;;;30.38;17.88;;;6.90;95.40;;;;;;5052158;28;20048;-81
2021/11/03 09:14:51;;;;;;;27.48;15.90;;;6.90;95.10;;;;;;5051529;28;20468;-81
2021/11/03 09:17:17;;;;;;;19.58;12.85;;;6.90;95.10;;;;;;5033119;28;20037;-78
2021/11/03 09:19:42;;;;;;;18.48;12.70;;;6.90;95.20;;;;;;5053036;28;20025;-82
2021/11/03 09:22:08;;;;;;;27.27;13.88;;;6.90;95.20;;;;;;5031876;28;20025;-81
2021/11/03 09:24:35;;;;;;;23.65;13.90;;;7.00;95.20;;;;;;5037789;28;20040;-82
2021/11/03 09:27:12;;;;;;;20.05;13.73;;;7.00;95.20;;;;;;5053150;28;20412;-82
2021/11/03 09:29:38;;;;;;;27.77;13.48;;;7.00;95.30;;;;;;5036104;28;20045;-81
2021/11/03 09:32:04;;;;;;;19.00;12.30;;;7.00;95.30;;;;;;5053000;28;20033;-82
2021/11/03 09:34:31;;;;;;;18.77;12.95;;;7.00;95.30;;;;;;5051582;28;20478;-82
2021/11/03 09:36:57;;;;;;;20.27;13.38;;;7.00;95.30;;;;;;5051847;28;20021;-82
2021/11/03 09:39:23;;;;;;;23.05;12.85;;;7.10;95.40;;;;;;5051828;28;20037;-82
2021/11/03 09:41:52;;;;;;;20.58;13.55;;;7.10;95.40;;;;;;5051916;28;20493;-82
2021/11/03 09:44:25;;;;;;;24.15;12.98;;;7.20;95.40;;;;;;5052939;28;20032;-82
2021/11/03 09:47:00;;;;;;;18.75;12.30;;;7.20;95.40;;;;;;5067457;28;20037;-82
2021/11/03 09:49:38;;;;;;;22.77;14.35;;;7.20;95.50;;;;;;5052318;28;20028;-82
2021/11/03 09:52:19;;;;;;;27.48;14.52;;;7.30;95.50;;;;;;5050438;28;20021;-82
2021/11/03 09:54:52;;;;;;;24.52;15.30;;;7.30;95.50;;;;;;5050758;28;20033;-82
2021/11/03 09:57:47;;;;;;;20.70;13.43;;;7.30;95.40;;;;;;5050558;28;20029;-82
2021/11/03 10:00:29;;;;;;;22.92;14.77;;;7.30;95.50;;;;;;5050414;28;20128;-81
2021/11/03 10:03:16;;;;;;;19.27;14.00;;;7.30;95.70;;;;;;5050017;28;20029;-82
2021/11/03 10:05:50;;;;;;;27.73;16.63;;;7.30;95.50;;;;;;5048419;28;20386;-82
2021/11/03 10:08:20;;;;;;;23.20;14.65;;;7.40;95.50;;;;;;5048214;28;20028;-82
2021/11/03 10:10:56;;;;;;;20.08;14.38;;;7.40;95.50;;;;;;5050711;28;20017;-82
2021/11/03 10:13:36;;;;;;;26.40;15.23;;;7.40;95.50;;;;;;5045317;28;20479;-82
2021/11/03 10:16:24;;;;;;;26.08;16.42;;;7.40;95.60;;;;;;5032072;28;20021;-82
2021/11/03 10:18:55;;;;;;;25.25;16.58;;;7.50;95.60;;;;;;5030757;28;20029;-82
2021/11/03 10:21:44;;;;;;;23.52;16.90;;;7.50;95.60;;;;;;5032915;28;20048;-82
2021/11/03 10:24:13;;;;;;;30.08;17.10;;;7.60;95.60;;;;;;5032795;28;20025;-82
2021/11/03 10:26:56;;;;;;;25.38;16.27;;;7.50;95.60;;;;;;5047913;28;20048;-82
2021/11/03 10:29:39;;;;;;;23.98;15.65;;;7.60;95.60;;;;;;5032044;28;20049;-82
2021/11/03 10:32:20;;;;;;;21.05;15.57;;;7.60;95.60;;;;;;5034523;28;20028;-82
2021/11/03 10:35:12;;;;;;;19.27;13.20;;;7.60;95.70;;;;;;5051127;28;20029;-84
2021/11/03 10:37:43;;;;;;;22.33;15.38;;;7.60;95.70;;;;;;5038659;28;20032;-83
2021/11/03 10:40:21;;;;;;;20.92;15.43;;;7.80;95.70;;;;;;5051233;28;20021;-83
2021/11/03 10:42:51;;;;;;;25.23;16.48;;;7.90;95.70;;;;;;5050728;28;20772;-84
2021/11/03 10:45:24;;;;;;;22.92;15.25;;;8.00;95.60;;;;;;5051814;28;20029;-83
2021/11/03 10:47:54;;;;;;;19.55;14.82;;;8.00;95.50;;;;;;5047855;28;20033;-83
2021/11/03 10:50:36;;;;;;;21.10;15.35;;;8.10;95.50;;;;;;5034946;28;20025;-84
2021/11/03 10:53:21;;;;;;;20.83;14.98;;;8.20;95.50;;;;;;5038034;28;20029;-84
2021/11/03 10:55:57;;;;;;;23.92;16.00;;;8.30;95.30;;;;;;5058235;28;20025;-83
2021/11/03 10:58:28;;;;;;;23.27;16.05;;;8.30;95.20;;;;;;5054455;28;20021;-83
2021/11/03 11:01:13;;;;;;;22.35;14.60;;;8.40;95.20;;;;;;5054704;28;20036;-83
2021/11/03 11:04:03;;;;;;;22.35;14.27;;;8.40;95.10;;;;;;5054655;28;20036;-83
2021/11/03 11:06:35;;;;;;;19.75;13.55;;;8.50;95.20;;;;;;5054474;28;20033;-82
2021/11/03 11:09:32;;;;;;;20.90;14.32;;;8.50;95.10;;;;;;5054312;28;20021;-82
2021/11/03 11:12:04;;;;;;;18.00;14.52;;;8.50;95.00;;;;;;5035826;28;20040;-83
2021/11/03 11:14:32;;;;;;;18.83;13.32;;;8.50;94.90;;;;;;5034516;28;20029;-83
2021/11/03 11:17:24;;;;;;;21.08;13.65;;;8.60;94.90;;;;;;5047256;28;20071;-83
2021/11/03 11:20:14;;;;;;;19.27;14.25;;;8.60;94.80;;;;;;5028881;28;20026;-83
2021/11/03 11:22:56;;;;;;;23.20;14.13;;;8.60;94.70;;;;;;5048265;28;20116;-82
2021/11/03 11:25:43;;;;;;;18.63;12.68;;;8.70;94.70;;;;;;5054007;28;20017;-82
2021/11/03 11:28:30;;;;;;;23.33;14.93;;;8.70;94.70;;;;;;5053992;28;20055;-82
2021/11/03 11:31:06;;;;;;;26.05;13.75;;;8.70;94.60;;;;;;5047719;28;20151;-81
2021/11/03 11:33:38;;;;;;;23.17;14.32;;;8.70;94.50;;;;;;5049357;28;20056;-83
2021/11/03 11:36:28;;;;;;;19.77;13.40;;;8.70;94.60;;;;;;5053843;28;20426;-82
2021/11/03 11:38:56;;;;;;;24.67;15.98;;;8.80;94.70;;;;;;5051855;28;20037;-82
2021/11/03 11:41:48;;;;;;;19.40;14.00;;;8.80;94.60;;;;;;5051714;28;20056;-82
2021/11/03 11:44:35;;;;;;;21.02;14.52;;;8.80;94.60;;;;;;5041578;28;20045;-82
2021/11/03 11:47:06;;;;;;;19.42;14.98;;;8.90;94.60;;;;;;5040523;28;20044;-82
2021/11/03 11:49:43;;;;;;;19.70;13.65;;;9.00;94.60;;;;;;5053143;28;20489;-82
2021/11/03 11:52:12;;;;;;;16.63;13.68;;;9.00;94.50;;;;;;5054233;28;20131;-82
2021/11/03 11:55:00;;;;;;;18.85;13.75;;;9.00;94.40;;;;;;5053295;28;20021;-82
2021/11/03 11:57:26;;;;;;;18.08;13.43;;;9.10;94.30;;;;;;5053136;28;20029;-82
2021/11/03 12:00:00;;;;;;;30.58;15.57;;;9.10;94.30;;;;;;5054558;28;20382;-82
2021/11/03 12:02:27;;;;;;;25.02;16.13;;;9.10;94.30;;;;;;5054591;28;20029;-82
2021/11/03 12:05:18;;;;;;;22.23;15.18;;;9.10;94.30;;;;;;5053368;28;20104;-82
2021/11/03 12:08:11;;;;;;;24.77;15.10;;;9.10;94.30;;;;;;5033508;28;20824;-82
2021/11/03 12:10:42;;;;;;;23.30;13.88;;;9.10;94.30;;;;;;5043710;28;20040;-82
2021/11/03 12:13:08;;;;;;;22.48;14.63;;;9.10;94.30;;;;;;5054098;28;20025;-82
2021/11/03 12:15:48;;;;;;;19.52;14.13;;;9.10;94.30;;;;;;5052714;28;20123;-82
2021/11/03 12:18:34;;;;;;;25.60;15.05;;;9.20;94.20;;;;;;5053211;28;20441;-83
2021/11/03 12:21:00;;;;;;;18.17;13.27;;;9.10;94.10;;;;;;5053052;28;20045;-83
2021/11/03 12:23:41;;;;;;;21.00;13.52;;;9.20;94.10;;;;;;5054298;28;20082;-82
2021/11/03 12:26:25;;;;;;;16.67;11.77;;;9.20;94.10;;;;;;5052721;28;20041;-82
2021/11/03 12:28:57;;;;;;;24.27;13.38;;;9.10;94.10;;;;;;5053147;28;20093;-82
2021/11/03 12:31:29;;;;;;;21.23;12.90;;;9.10;93.90;;;;;;5052603;28;20032;-78
2021/11/03 12:34:04;;;;;;;21.60;12.57;;;9.00;93.90;;;;;;5052974;28;20017;-78
2021/11/03 12:36:48;;;;;;;21.48;12.32;;;9.00;94.00;;;;;;5053982;28;20103;-78
2021/11/03 12:39:29;;;;;;;23.48;13.70;;;8.90;94.20;;;;;;5053809;28;20029;-79
2021/11/03 12:42:17;;;;;;;20.02;13.20;;;8.90;94.40;;;;;;5053793;28;20032;-78
2021/11/03 12:44:47;;;;;;;22.90;14.80;;;8.80;94.40;;;;;;5034035;28;20038;-78
2021/11/03 12:47:22;;;;;;;26.33;15.18;;;8.80;94.50;;;;;;5032536;28;20033;-78
2021/11/03 12:50:06;;;;;;;23.70;14.40;;;8.80;94.60;;;;;;5033854;28;20022;-79
2021/11/03 12:52:41;;;;;;;26.48;16.25;;;8.70;94.70;;;;;;5032653;28;20025;-78
2021/11/03 12:55:24;;;;;;;24.67;15.27;;;8.70;94.70;;;;;;5033807;28;20071;-78
2021/11/03 12:57:49;;;;;;;20.45;13.50;;;8.70;94.80;;;;;;5033851;28;20048;-78
2021/11/03 13:00:22;;;;;;;24.15;14.98;;;8.70;94.80;;;;;;5032173;28;20025;-78